Time;durP1;ratioP1;P1;durP2;ratioP2;P2;SDS_P1;SDS_P2;PMS_P1;PMS_P2;Temp;Humidity;BMP_temperature;BMP_pressure;BME280_temperature;BME280_humidity;BME280_pressure;Samples;Min_cycle;Max_cycle;Signal;HPM_P1;HPM_P2
2024/01/07 00:02:13;;;;;;;2.78;2.53;;;;;;;;;;5115312;28;20768;-79
2024/01/07 00:04:40;;;;;;;2.50;2.30;;;;;;;;;;5108527;28;20474;-79
2024/01/07 00:07:06;;;;;;;2.55;2.35;;;;;;;;;;5113723;28;20408;-79
2024/01/07 00:09:32;;;;;;;2.58;2.38;;;;;;;;;;5111951;28;20400;-79
2024/01/07 00:11:58;;;;;;;3.00;2.70;;;;;;;;;;5114148;28;20441;-79
2024/01/07 00:14:24;;;;;;;2.22;2.13;;;;;;;;;;5115329;28;20377;-79
2024/01/07 00:16:50;;;;;;;2.50;2.30;;;;;;;;;;5114896;28;20753;-81
2024/01/07 00:19:16;;;;;;;2.60;2.40;;;;;;;;;;5100581;28;20376;-79
2024/01/07 00:21:42;;;;;;;2.55;2.40;;;;;;;;;;5115130;28;20385;-80
2024/01/07 00:24:08;;;;;;;2.17;2.08;;;;;;;;;;5114918;28;20849;-79
2024/01/07 00:26:34;;;;;;;2.30;2.20;;;;;;;;;;5114995;28;20384;-80
2024/01/07 00:29:00;;;;;;;2.70;2.50;;;;;;;;;;5116526;28;20408;-80
2024/01/07 00:31:26;;;;;;;3.63;3.33;;;;;;;;;;5118696;28;20380;-80
2024/01/07 00:33:52;;;;;;;3.00;2.80;;;;;;;;;;5118822;28;20805;-79
2024/01/07 00:36:18;;;;;;;2.72;2.53;;;;;;;;;;5115696;28;20783;-79
2024/01/07 00:38:44;;;;;;;3.10;2.80;;;;;;;;;;5098858;28;20378;-79
2024/01/07 00:41:10;;;;;;;5.90;4.60;;;;;;;;;;5098953;28;20520;-79
2024/01/07 00:43:36;;;;;;;4.95;3.90;;;;;;;;;;5105538;28;20404;-79
2024/01/07 00:46:02;;;;;;;4.22;3.83;;;;;;;;;;5119138;28;20384;-80
2024/01/07 00:48:28;;;;;;;3.60;3.17;;;;;;;;;;5117947;28;20408;-79
2024/01/07 00:50:55;;;;;;;3.00;2.80;;;;;;;;;;5118574;28;20381;-79
2024/01/07 00:53:21;;;;;;;2.75;2.50;;;;;;;;;;5118892;28;20364;-80
2024/01/07 00:55:47;;;;;;;2.72;2.53;;;;;;;;;;5118599;28;20383;-80
2024/01/07 00:58:13;;;;;;;4.03;3.63;;;;;;;;;;5118160;28;20388;-80
2024/01/07 01:00:39;;;;;;;3.90;3.50;;;;;;;;;;5118606;28;20832;-80
2024/01/07 01:03:05;;;;;;;3.70;3.30;;;;;;;;;;5118041;28;20372;-80
2024/01/07 01:05:31;;;;;;;4.63;4.05;;;;;;;;;;5109026;28;20376;-80
2024/01/07 01:07:57;;;;;;;4.10;3.70;;;;;;;;;;5117678;28;20377;-80
2024/01/07 01:10:23;;;;;;;3.05;2.78;;;;;;;;;;5117218;28;20372;-80
2024/01/07 01:12:49;;;;;;;3.20;2.90;;;;;;;;;;5108525;28;20370;-80
2024/01/07 01:15:16;;;;;;;4.18;3.50;;;;;;;;;;5109775;28;20862;-80
2024/01/07 01:17:42;;;;;;;3.60;3.30;;;;;;;;;;5114505;27;20373;-80
2024/01/07 01:20:09;;;;;;;3.40;3.10;;;;;;;;;;5107958;28;20395;-80
2024/01/07 01:22:35;;;;;;;3.30;3.00;;;;;;;;;;5118262;28;20719;-80
2024/01/07 01:25:01;;;;;;;3.30;3.00;;;;;;;;;;5117867;28;20381;-80
2024/01/07 01:27:27;;;;;;;2.83;2.63;;;;;;;;;;5118060;28;20384;-80
2024/01/07 01:29:53;;;;;;;2.70;2.50;;;;;;;;;;5104310;28;20439;-80
2024/01/07 01:32:19;;;;;;;2.80;2.60;;;;;;;;;;5118147;28;20435;-80
2024/01/07 01:34:45;;;;;;;2.83;2.63;;;;;;;;;;5117664;28;20383;-80
2024/01/07 01:37:11;;;;;;;2.78;2.58;;;;;;;;;;5108341;28;20939;-80
2024/01/07 01:39:39;;;;;;;2.97;2.77;;;;;;;;;;5114427;28;20447;-80
2024/01/07 01:42:06;;;;;;;3.30;2.42;;;;;;;;;;5117436;28;20444;-80
2024/01/07 01:44:31;;;;;;;2.80;2.60;;;;;;;;;;5116938;28;20407;-80
2024/01/07 01:47:00;;;;;;;2.67;2.28;;;;;;;;;;5117181;28;20384;-80
2024/01/07 01:49:26;;;;;;;2.53;2.33;;;;;;;;;;5117390;28;20404;-80
2024/01/07 01:51:52;;;;;;;2.17;2.08;;;;;;;;;;5117795;28;20380;-80
2024/01/07 01:54:19;;;;;;;2.65;2.45;;;;;;;;;;5117769;28;20369;-80
2024/01/07 01:56:45;;;;;;;2.30;2.20;;;;;;;;;;5117788;28;20818;-80
2024/01/07 01:59:12;;;;;;;2.30;2.15;;;;;;;;;;5117635;28;20384;-80
2024/01/07 02:01:38;;;;;;;2.50;2.30;;;;;;;;;;5117716;28;20426;-80
2024/01/07 02:04:04;;;;;;;2.60;2.42;;;;;;;;;;5115066;28;20400;-80
2024/01/07 02:06:30;;;;;;;2.45;2.25;;;;;;;;;;5111321;28;20387;-80
2024/01/07 02:08:57;;;;;;;2.58;2.38;;;;;;;;;;5111010;28;20402;-80
2024/01/07 02:11:23;;;;;;;2.55;2.35;;;;;;;;;;5108744;28;20372;-80
2024/01/07 02:13:49;;;;;;;2.67;2.47;;;;;;;;;;5117110;28;20388;-80
2024/01/07 02:16:15;;;;;;;2.70;2.50;;;;;;;;;;5117475;28;20364;-80
2024/01/07 02:18:42;;;;;;;2.60;2.40;;;;;;;;;;5104125;28;20385;-80
2024/01/07 02:21:09;;;;;;;3.00;2.60;;;;;;;;;;5115250;28;20790;-80
2024/01/07 02:23:35;;;;;;;2.78;2.58;;;;;;;;;;5117086;28;20888;-80
2024/01/07 02:26:01;;;;;;;2.70;2.50;;;;;;;;;;5116623;28;20861;-80
2024/01/07 02:28:28;;;;;;;2.90;2.70;;;;;;;;;;5116400;28;20939;-80
2024/01/07 02:30:53;;;;;;;2.78;2.58;;;;;;;;;;5116586;28;20384;-80
2024/01/07 02:33:19;;;;;;;2.58;2.38;;;;;;;;;;5116344;28;20396;-80
2024/01/07 02:35:46;;;;;;;2.85;2.65;;;;;;;;;;5103838;28;20412;-80
2024/01/07 02:38:12;;;;;;;3.28;3.08;;;;;;;;;;5095926;28;20374;-79
2024/01/07 02:40:38;;;;;;;2.85;2.65;;;;;;;;;;5098046;28;20751;-79
2024/01/07 02:43:04;;;;;;;3.08;2.88;;;;;;;;;;5112686;28;20408;-79
2024/01/07 02:45:30;;;;;;;2.97;2.78;;;;;;;;;;5116399;28;20384;-79
2024/01/07 02:47:56;;;;;;;2.80;2.60;;;;;;;;;;5116487;28;20451;-79
2024/01/07 02:50:22;;;;;;;2.90;2.70;;;;;;;;;;5115842;28;20369;-79
2024/01/07 02:52:48;;;;;;;3.07;2.87;;;;;;;;;;5114695;28;20392;-79
2024/01/07 02:55:14;;;;;;;3.17;2.97;;;;;;;;;;5115416;28;20368;-79
2024/01/07 02:57:40;;;;;;;3.30;3.10;;;;;;;;;;5116268;28;20393;-80
2024/01/07 03:00:06;;;;;;;3.40;3.20;;;;;;;;;;5115613;28;20851;-80
2024/01/07 03:02:32;;;;;;;3.03;2.83;;;;;;;;;;5104370;28;20499;-80
2024/01/07 03:04:58;;;;;;;3.45;3.20;;;;;;;;;;5115455;28;20461;-80
2024/01/07 03:07:24;;;;;;;3.20;3.00;;;;;;;;;;5115143;28;20407;-80
2024/01/07 03:09:50;;;;;;;3.40;3.20;;;;;;;;;;5115858;28;20825;-80
2024/01/07 03:12:16;;;;;;;3.63;3.33;;;;;;;;;;5115774;28;20372;-80
2024/01/07 03:14:42;;;;;;;3.28;3.08;;;;;;;;;;5115859;28;20412;-80
2024/01/07 03:17:09;;;;;;;3.30;3.10;;;;;;;;;;5095762;28;20378;-80
2024/01/07 03:19:35;;;;;;;3.00;2.80;;;;;;;;;;5100704;28;20426;-80
2024/01/07 03:22:01;;;;;;;3.05;2.85;;;;;;;;;;5115857;28;20388;-80
2024/01/07 03:24:27;;;;;;;3.25;3.05;;;;;;;;;;5115265;28;20733;-80
2024/01/07 03:26:53;;;;;;;3.40;3.20;;;;;;;;;;5115496;28;20387;-80
2024/01/07 03:29:19;;;;;;;3.42;3.20;;;;;;;;;;5114990;28;20810;-80
2024/01/07 03:31:45;;;;;;;3.67;3.38;;;;;;;;;;5115318;28;20391;-80
2024/01/07 03:34:11;;;;;;;3.70;3.37;;;;;;;;;;5114975;28;20392;-80
2024/01/07 03:36:37;;;;;;;3.30;3.10;;;;;;;;;;5100571;28;20379;-80
2024/01/07 03:39:03;;;;;;;3.13;2.92;;;;;;;;;;5115369;28;20381;-80
2024/01/07 03:41:29;;;;;;;3.60;3.40;;;;;;;;;;5109274;28;20467;-80
2024/01/07 03:43:56;;;;;;;3.38;3.17;;;;;;;;;;5115436;28;20404;-80
2024/01/07 03:46:22;;;;;;;3.53;3.30;;;;;;;;;;5114911;28;20376;-79
2024/01/07 03:48:48;;;;;;;3.83;3.53;;;;;;;;;;5115168;28;20410;-80
2024/01/07 03:51:14;;;;;;;3.40;3.20;;;;;;;;;;5113708;28;20404;-79
2024/01/07 03:53:40;;;;;;;3.25;3.05;;;;;;;;;;5108625;28;20389;-79
2024/01/07 03:56:06;;;;;;;4.32;3.92;;;;;;;;;;5095200;28;20378;-79
2024/01/07 03:58:32;;;;;;;3.80;3.50;;;;;;;;;;5094961;28;20390;-79
2024/01/07 04:00:58;;;;;;;3.75;3.35;;;;;;;;;;5105756;28;20387;-79
2024/01/07 04:03:24;;;;;;;3.72;3.42;;;;;;;;;;5115350;28;20376;-79
2024/01/07 04:05:50;;;;;;;3.92;3.63;;;;;;;;;;5110649;28;20470;-79
2024/01/07 04:08:16;;;;;;;4.10;3.80;;;;;;;;;;5118071;28;20380;-79
2024/01/07 04:10:42;;;;;;;3.80;3.50;;;;;;;;;;5105083;28;20474;-79
2024/01/07 04:13:08;;;;;;;4.32;3.58;;;;;;;;;;5118778;28;20376;-79
2024/01/07 04:15:34;;;;;;;3.97;3.65;;;;;;;;;;5118500;28;20381;-79
2024/01/07 04:18:04;;;;;;;3.75;3.55;;;;;;;;;;5107896;28;20431;-79
2024/01/07 04:20:30;;;;;;;3.88;3.58;;;;;;;;;;5111473;28;20441;-80
2024/01/07 04:22:57;;;;;;;3.70;3.40;;;;;;;;;;5118455;28;20372;-79
2024/01/07 04:25:23;;;;;;;3.97;3.67;;;;;;;;;;5118997;28;20418;-79
2024/01/07 04:27:49;;;;;;;4.10;3.80;;;;;;;;;;5118443;28;20377;-79
2024/01/07 04:30:15;;;;;;;4.30;4.00;;;;;;;;;;5118654;28;20429;-79
2024/01/07 04:32:41;;;;;;;3.97;3.67;;;;;;;;;;5118415;28;20376;-79
2024/01/07 04:35:07;;;;;;;4.40;4.00;;;;;;;;;;5118821;28;20415;-79
2024/01/07 04:37:33;;;;;;;3.90;3.60;;;;;;;;;;5100920;28;20450;-79
2024/01/07 04:40:00;;;;;;;4.30;4.00;;;;;;;;;;5108351;28;20910;-79
2024/01/07 04:42:26;;;;;;;4.82;4.43;;;;;;;;;;5115674;28;20435;-79
2024/01/07 04:44:52;;;;;;;4.73;4.33;;;;;;;;;;5118353;28;20388;-79
2024/01/07 04:47:31;;;;;;;4.18;3.88;;;;;;;;;;5118577;28;20455;-79
2024/01/07 04:49:58;;;;;;;4.47;4.07;;;;;;;;;;5117592;28;20404;-79
2024/01/07 04:52:24;;;;;;;4.30;3.97;;;;;;;;;;5118243;28;20373;-79
2024/01/07 04:54:52;;;;;;;4.37;4.03;;;;;;;;;;5118307;28;20491;-79
2024/01/07 04:57:18;;;;;;;4.63;4.13;;;;;;;;;;5118095;28;20381;-80
2024/01/07 04:59:44;;;;;;;4.40;4.00;;;;;;;;;;5118480;28;20471;-79
2024/01/07 05:02:10;;;;;;;4.73;4.33;;;;;;;;;;5118572;28;20368;-79
2024/01/07 05:04:37;;;;;;;4.63;4.22;;;;;;;;;;5117985;28;20379;-79
2024/01/07 05:07:03;;;;;;;4.50;4.20;;;;;;;;;;5116429;28;20376;-79
2024/01/07 05:09:29;;;;;;;4.80;4.40;;;;;;;;;;5118380;28;20534;-79
2024/01/07 05:11:55;;;;;;;5.10;4.70;;;;;;;;;;5118027;28;20423;-79
2024/01/07 05:14:22;;;;;;;4.57;4.18;;;;;;;;;;5117791;28;20378;-79
2024/01/07 05:16:48;;;;;;;4.67;4.30;;;;;;;;;;5116668;28;20830;-79
2024/01/07 05:19:14;;;;;;;4.60;4.30;;;;;;;;;;5099877;28;20388;-79
2024/01/07 05:21:40;;;;;;;5.10;4.70;;;;;;;;;;5118062;28;20468;-79
2024/01/07 05:24:06;;;;;;;4.88;4.47;;;;;;;;;;5116895;28;20883;-80
2024/01/07 05:26:39;;;;;;;4.82;4.43;;;;;;;;;;5117511;28;20426;-79
2024/01/07 05:29:05;;;;;;;4.78;4.38;;;;;;;;;;5117609;27;20479;-79
2024/01/07 05:31:31;;;;;;;5.05;4.65;;;;;;;;;;5117441;28;20907;-80
2024/01/07 05:33:57;;;;;;;4.88;4.47;;;;;;;;;;5117142;28;20423;-80
2024/01/07 05:36:23;;;;;;;5.10;4.70;;;;;;;;;;5117196;28;20372;-79
2024/01/07 05:38:49;;;;;;;4.57;4.27;;;;;;;;;;5117612;28;20375;-79
2024/01/07 05:41:15;;;;;;;7.00;5.70;;;;;;;;;;5103228;28;20385;-81
2024/01/07 05:43:40;;;;;;;5.05;4.65;;;;;;;;;;5116922;28;20461;-81
2024/01/07 05:46:06;;;;;;;5.20;4.70;;;;;;;;;;5103111;28;20839;-80
2024/01/07 05:48:43;;;;;;;5.43;5.03;;;;;;;;;;5116957;28;20400;-81
2024/01/07 05:51:09;;;;;;;5.72;5.13;;;;;;;;;;5103134;28;20794;-81
2024/01/07 05:53:35;;;;;;;5.13;4.70;;;;;;;;;;5116923;28;20419;-81
2024/01/07 05:56:02;;;;;;;5.10;4.70;;;;;;;;;;5116873;28;20391;-81
2024/01/07 05:58:28;;;;;;;5.25;4.85;;;;;;;;;;5116224;28;20388;-81
2024/01/07 06:00:54;;;;;;;5.13;4.72;;;;;;;;;;5116912;28;20449;-81
2024/01/07 06:03:20;;;;;;;5.00;4.60;;;;;;;;;;5117177;28;20377;-81
2024/01/07 06:05:46;;;;;;;5.20;4.80;;;;;;;;;;5107990;28;20388;-82
2024/01/07 06:08:12;;;;;;;5.03;4.63;;;;;;;;;;5115585;28;20411;-82
2024/01/07 06:10:39;;;;;;;5.03;4.63;;;;;;;;;;5116646;28;20403;-80
2024/01/07 06:13:05;;;;;;;5.18;4.68;;;;;;;;;;5116676;28;20408;-82
2024/01/07 06:15:31;;;;;;;4.80;4.40;;;;;;;;;;5117092;28;20814;-82
2024/01/07 06:17:57;;;;;;;5.05;4.65;;;;;;;;;;5106585;28;20377;-81
2024/01/07 06:20:23;;;;;;;5.28;4.82;;;;;;;;;;5108790;28;20384;-81
2024/01/07 06:22:50;;;;;;;5.70;4.78;;;;;;;;;;5114688;28;20761;-81
2024/01/07 06:25:16;;;;;;;5.30;4.90;;;;;;;;;;5116151;28;20377;-82
2024/01/07 06:27:42;;;;;;;5.45;4.90;;;;;;;;;;5113623;28;20383;-80
2024/01/07 06:30:08;;;;;;;4.95;4.55;;;;;;;;;;5104040;28;20454;-81
2024/01/07 06:32:36;;;;;;;5.38;4.97;;;;;;;;;;5115703;28;20419;-80
2024/01/07 06:35:05;;;;;;;5.00;4.60;;;;;;;;;;5114895;28;20381;-80
2024/01/07 06:37:31;;;;;;;5.22;4.82;;;;;;;;;;5102135;28;20396;-80
2024/01/07 06:40:00;;;;;;;5.03;4.63;;;;;;;;;;5109002;28;20884;-81
2024/01/07 06:42:26;;;;;;;5.28;4.78;;;;;;;;;;5106680;28;21069;-81
2024/01/07 06:44:52;;;;;;;4.72;4.35;;;;;;;;;;5115676;28;20388;-80
2024/01/07 06:47:18;;;;;;;5.88;5.13;;;;;;;;;;5114481;28;20845;-81
2024/01/07 06:49:45;;;;;;;4.82;4.43;;;;;;;;;;5113658;28;20428;-80
2024/01/07 06:52:11;;;;;;;5.30;4.90;;;;;;;;;;5116802;28;20371;-81
2024/01/07 06:54:39;;;;;;;5.40;5.00;;;;;;;;;;5116248;28;20368;-82
2024/01/07 06:57:05;;;;;;;5.63;5.13;;;;;;;;;;5113796;28;20505;-82
2024/01/07 06:59:31;;;;;;;5.70;5.10;;;;;;;;;;5115291;28;20782;-82
2024/01/07 07:01:57;;;;;;;6.03;5.53;;;;;;;;;;5115477;28;20373;-80
2024/01/07 07:04:23;;;;;;;6.55;6.05;;;;;;;;;;5107484;28;20382;-80
2024/01/07 07:06:49;;;;;;;5.95;5.45;;;;;;;;;;5094893;28;20402;-80
2024/01/07 07:09:15;;;;;;;5.50;5.10;;;;;;;;;;5095071;28;21059;-80
2024/01/07 07:11:41;;;;;;;5.85;5.45;;;;;;;;;;5108985;28;20368;-83
2024/01/07 07:14:07;;;;;;;6.15;5.65;;;;;;;;;;5115680;28;20804;-81
2024/01/07 07:16:33;;;;;;;6.13;5.63;;;;;;;;;;5115653;28;20455;-81
2024/01/07 07:18:59;;;;;;;5.95;5.45;;;;;;;;;;5115242;28;20407;-81
2024/01/07 07:21:27;;;;;;;5.83;5.23;;;;;;;;;;5115562;28;20385;-82
2024/01/07 07:23:53;;;;;;;6.18;5.68;;;;;;;;;;5115387;28;20391;-82
2024/01/07 07:26:19;;;;;;;5.72;5.22;;;;;;;;;;5115355;28;20368;-82
2024/01/07 07:28:45;;;;;;;6.03;5.53;;;;;;;;;;5114220;28;20400;-80
2024/01/07 07:31:14;;;;;;;5.47;5.07;;;;;;;;;;5114855;28;20409;-80
2024/01/07 07:33:40;;;;;;;5.80;5.40;;;;;;;;;;5116739;28;20380;-82
2024/01/07 07:36:06;;;;;;;6.13;5.63;;;;;;;;;;5115035;28;20838;-80
2024/01/07 07:38:32;;;;;;;5.72;5.32;;;;;;;;;;5114880;28;20430;-82
2024/01/07 07:40:59;;;;;;;6.03;5.63;;;;;;;;;;5115311;28;20372;-82
2024/01/07 07:43:25;;;;;;;5.75;5.32;;;;;;;;;;5115082;28;20430;-82
2024/01/07 07:45:51;;;;;;;5.65;5.25;;;;;;;;;;5116042;28;20372;-81
2024/01/07 07:48:17;;;;;;;6.05;5.63;;;;;;;;;;5115165;28;20791;-80
2024/01/07 07:50:43;;;;;;;6.43;5.93;;;;;;;;;;5115369;28;20455;-81
2024/01/07 07:53:09;;;;;;;6.18;5.68;;;;;;;;;;5114226;28;20473;-82
2024/01/07 07:55:35;;;;;;;7.73;7.13;;;;;;;;;;5115173;28;20368;-82
2024/01/07 07:58:01;;;;;;;10.80;9.70;;;;;;;;;;5114655;28;20929;-81
2024/01/07 08:00:27;;;;;;;11.65;10.60;;;;;;;;;;5114616;28;20379;-81
2024/01/07 08:02:53;;;;;;;12.93;11.93;;;;;;;;;;5102913;28;20382;-81
2024/01/07 08:05:19;;;;;;;11.63;10.60;;;;;;;;;;5104770;28;20928;-81
2024/01/07 08:07:45;;;;;;;10.75;9.85;;;;;;;;;;5114859;28;20739;-82
2024/01/07 08:10:11;;;;;;;9.43;8.63;;;;;;;;;;5115059;28;20404;-82
2024/01/07 08:12:37;;;;;;;8.63;7.93;;;;;;;;;;5115213;28;20383;-81
2024/01/07 08:15:04;;;;;;;7.78;7.18;;;;;;;;;;5115030;28;20468;-81
2024/01/07 08:17:30;;;;;;;8.82;8.02;;;;;;;;;;5114802;28;20387;-81
2024/01/07 08:19:56;;;;;;;10.25;9.27;;;;;;;;;;5115435;28;20384;-80
2024/01/07 08:22:22;;;;;;;9.07;8.27;;;;;;;;;;5114192;28;20780;-80
2024/01/07 08:24:48;;;;;;;8.77;8.07;;;;;;;;;;5100615;28;20408;-80
2024/01/07 08:27:14;;;;;;;11.85;9.68;;;;;;;;;;5103663;28;20439;-81
2024/01/07 08:29:43;;;;;;;10.23;9.32;;;;;;;;;;5094581;28;20398;-80
2024/01/07 08:32:09;;;;;;;9.95;9.05;;;;;;;;;;5094043;28;20370;-81
2024/01/07 08:34:36;;;;;;;9.87;8.97;;;;;;;;;;5105944;28;20376;-80
2024/01/07 08:37:02;;;;;;;8.77;8.07;;;;;;;;;;5114363;28;20380;-80
2024/01/07 08:39:29;;;;;;;8.63;7.93;;;;;;;;;;5111731;28;20381;-80
2024/01/07 08:41:55;;;;;;;8.18;7.53;;;;;;;;;;5114765;28;20388;-83
2024/01/07 08:44:21;;;;;;;7.83;7.13;;;;;;;;;;5115168;28;20428;-81
2024/01/07 08:46:47;;;;;;;7.80;7.20;;;;;;;;;;5115076;28;20380;-81
2024/01/07 08:49:13;;;;;;;8.13;7.53;;;;;;;;;;5116146;28;20894;-82
2024/01/07 08:51:39;;;;;;;7.30;6.70;;;;;;;;;;5118241;28;20459;-83
2024/01/07 08:54:05;;;;;;;7.88;7.18;;;;;;;;;;5118752;28;20385;-81
2024/01/07 08:56:31;;;;;;;7.38;6.78;;;;;;;;;;5118475;28;20376;-81
2024/01/07 08:58:58;;;;;;;7.53;6.85;;;;;;;;;;5118369;28;20453;-81
2024/01/07 09:01:24;;;;;;;7.20;6.70;;;;;;;;;;5117761;28;20383;-81
2024/01/07 09:03:50;;;;;;;7.30;6.70;;;;;;;;;;5116990;28;20392;-82
2024/01/07 09:06:16;;;;;;;7.40;6.80;;;;;;;;;;5118933;28;20411;-83
2024/01/07 09:08:42;;;;;;;7.28;6.68;;;;;;;;;;5118103;28;20839;-82
2024/01/07 09:11:11;;;;;;;7.35;6.75;;;;;;;;;;5118680;28;20376;-82
2024/01/07 09:13:37;;;;;;;6.88;6.28;;;;;;;;;;5118426;28;20373;-81
2024/01/07 09:16:03;;;;;;;6.32;5.82;;;;;;;;;;5117773;28;20395;-82
2024/01/07 09:18:30;;;;;;;6.60;6.00;;;;;;;;;;5116913;28;20380;-81
2024/01/07 09:20:56;;;;;;;6.05;5.65;;;;;;;;;;5118982;28;20372;-81
2024/01/07 09:23:22;;;;;;;6.22;5.72;;;;;;;;;;5118442;28;20369;-81
2024/01/07 09:25:49;;;;;;;6.07;5.57;;;;;;;;;;5118352;28;20407;-81
2024/01/07 09:28:15;;;;;;;6.18;5.68;;;;;;;;;;5118506;28;20723;-81
2024/01/07 09:30:41;;;;;;;6.20;5.70;;;;;;;;;;5117774;28;20372;-81
2024/01/07 09:33:07;;;;;;;5.60;5.13;;;;;;;;;;5117531;28;20763;-82
2024/01/07 09:35:33;;;;;;;5.40;5.00;;;;;;;;;;5115520;28;20379;-80
2024/01/07 09:37:59;;;;;;;5.78;5.38;;;;;;;;;;5116017;28;20372;-81
2024/01/07 09:40:25;;;;;;;5.13;4.72;;;;;;;;;;5117123;28;20850;-81
2024/01/07 09:42:51;;;;;;;5.60;5.10;;;;;;;;;;5117484;28;20396;-81
2024/01/07 09:45:18;;;;;;;5.45;5.03;;;;;;;;;;5117717;28;20384;-81
2024/01/07 09:47:45;;;;;;;5.22;4.80;;;;;;;;;;5117903;28;20383;-81
2024/01/07 09:50:13;;;;;;;5.50;5.10;;;;;;;;;;5117605;28;20408;-83
2024/01/07 09:52:43;;;;;;;5.63;5.22;;;;;;;;;;5117628;28;20386;-82
2024/01/07 09:55:10;;;;;;;5.65;5.22;;;;;;;;;;5117525;28;20375;-82
2024/01/07 09:57:37;;;;;;;5.83;5.33;;;;;;;;;;5117334;28;20377;-83
2024/01/07 10:00:04;;;;;;;6.03;5.43;;;;;;;;;;5116607;28;20380;-82
2024/01/07 10:02:30;;;;;;;5.90;5.50;;;;;;;;;;5116635;28;20372;-82
2024/01/07 10:04:56;;;;;;;6.60;6.00;;;;;;;;;;5117051;28;20429;-83
2024/01/07 10:07:22;;;;;;;6.70;6.20;;;;;;;;;;5118782;28;20476;-81
2024/01/07 10:09:48;;;;;;;6.60;6.10;;;;;;;;;;5117971;28;20479;-81
2024/01/07 10:12:15;;;;;;;6.82;6.32;;;;;;;;;;5117302;28;20372;-81
2024/01/07 10:14:41;;;;;;;6.90;6.40;;;;;;;;;;5117242;28;20388;-81
2024/01/07 10:17:27;;;;;;;7.77;7.17;;;;;;;;;;5117381;28;20377;-82
2024/01/07 10:19:53;;;;;;;6.57;6.07;;;;;;;;;;5117023;28;20368;-81
2024/01/07 10:22:20;;;;;;;7.05;6.53;;;;;;;;;;5117931;28;20900;-81
2024/01/07 10:24:46;;;;;;;7.00;6.50;;;;;;;;;;5117641;28;20376;-82
2024/01/07 10:27:13;;;;;;;7.28;6.57;;;;;;;;;;5117781;28;20375;-80
2024/01/07 10:29:39;;;;;;;6.30;5.80;;;;;;;;;;5117293;28;20735;-80
2024/01/07 10:32:05;;;;;;;8.65;7.85;;;;;;;;;;5117164;28;20372;-81
2024/01/07 10:34:32;;;;;;;6.03;5.53;;;;;;;;;;5115811;28;20376;-81
2024/01/07 10:36:59;;;;;;;7.28;5.95;;;;;;;;;;5116584;28;20984;-82
2024/01/07 10:39:25;;;;;;;5.82;5.32;;;;;;;;;;5114428;28;20846;-83
2024/01/07 10:41:56;;;;;;;5.30;4.90;;;;;;;;;;5114083;28;20425;-83
2024/01/07 10:44:23;;;;;;;5.07;4.63;;;;;;;;;;5115756;28;20396;-82
2024/01/07 10:46:49;;;;;;;5.43;5.03;;;;;;;;;;5116655;28;20379;-83
2024/01/07 10:49:21;;;;;;;4.38;4.07;;;;;;;;;;5116292;28;20400;-83
2024/01/07 10:51:57;;;;;;;5.17;4.70;;;;;;;;;;5115984;28;20433;-83
2024/01/07 10:54:24;;;;;;;5.25;4.68;;;;;;;;;;5116870;28;20376;-83
2024/01/07 10:56:54;;;;;;;5.25;4.85;;;;;;;;;;5116541;28;20373;-83
2024/01/07 10:59:21;;;;;;;4.57;4.18;;;;;;;;;;5116186;28;20403;-83
2024/01/07 11:01:47;;;;;;;4.80;4.40;;;;;;;;;;5116504;28;20906;-83
2024/01/07 11:04:21;;;;;;;5.07;4.67;;;;;;;;;;5116592;28;20380;-83
2024/01/07 11:06:52;;;;;;;4.38;4.07;;;;;;;;;;5116557;28;20733;-83
2024/01/07 11:09:36;;;;;;;5.10;4.70;;;;;;;;;;5116917;28;20766;-82
2024/01/07 11:12:04;;;;;;;5.20;4.80;;;;;;;;;;5113611;28;20733;-85
2024/01/07 11:14:52;;;;;;;5.70;5.30;;;;;;;;;;5115890;28;20379;-85
2024/01/07 11:17:38;;;;;;;10.13;9.38;;;;;;;;;;5116229;28;20365;-84
2024/01/07 11:20:08;;;;;;;44.00;33.80;;;;;;;;;;5116295;28;20372;-84
2024/01/07 11:22:34;;;;;;;11.13;10.23;;;;;;;;;;5115863;28;20433;-85
2024/01/07 11:25:01;;;;;;;7.00;6.50;;;;;;;;;;5116926;28;20384;-84
2024/01/07 11:27:33;;;;;;;22.87;20.63;;;;;;;;;;5115085;28;20395;-85
2024/01/07 11:30:19;;;;;;;5.97;5.57;;;;;;;;;;5116610;28;20445;-84
2024/01/07 11:32:48;;;;;;;6.80;6.30;;;;;;;;;;5116683;28;20369;-85
2024/01/07 11:35:15;;;;;;;6.03;5.53;;;;;;;;;;5116094;28;20372;-85
2024/01/07 11:37:41;;;;;;;7.10;6.60;;;;;;;;;;5115661;28;20455;-84
2024/01/07 11:40:11;;;;;;;5.78;5.38;;;;;;;;;;5115534;28;20836;-85
2024/01/07 11:42:37;;;;;;;6.63;6.13;;;;;;;;;;5227825;22;20411;-85
2024/01/07 11:45:03;;;;;;;5.65;5.25;;;;;;;;;;5072809;28;20429;-87
2024/01/07 11:47:29;;;;;;;7.60;7.00;;;;;;;;;;5058517;28;20385;-86
2024/01/07 11:49:55;;;;;;;6.32;5.85;;;;;;;;;;5058230;28;20417;-86
2024/01/07 11:52:21;;;;;;;6.60;6.10;;;;;;;;;;5075016;28;20461;-86
2024/01/07 11:54:48;;;;;;;86.35;60.97;;;;;;;;;;5060066;28;20386;-86
2024/01/07 11:57:14;;;;;;;9.63;8.70;;;;;;;;;;5059104;28;20374;-86
2024/01/07 11:59:40;;;;;;;103.05;68.97;;;;;;;;;;5059564;28;20397;-86
2024/01/07 12:02:06;;;;;;;24.30;19.25;;;;;;;;;;5058168;28;20397;-86
2024/01/07 12:04:33;;;;;;;24.13;19.90;;;;;;;;;;5058070;28;20760;-86
2024/01/07 12:06:59;;;;;;;6.30;5.80;;;;;;;;;;5058403;28;20385;-85
2024/01/07 12:09:25;;;;;;;12.18;11.07;;;;;;;;;;5059224;28;20398;-86
2024/01/07 12:11:51;;;;;;;9.55;8.82;;;;;;;;;;5056895;28;20406;-86
2024/01/07 12:14:19;;;;;;;8.30;7.50;;;;;;;;;;5057751;28;20396;-87
2024/01/07 12:16:45;;;;;;;11.15;10.25;;;;;;;;;;5058507;28;20394;-86
2024/01/07 12:19:11;;;;;;;12.15;11.13;;;;;;;;;;5059600;28;20449;-86
2024/01/07 12:21:38;;;;;;;5.93;5.50;;;;;;;;;;5059014;28;20385;-86
2024/01/07 12:24:04;;;;;;;7.15;6.47;;;;;;;;;;5058755;28;20427;-86
2024/01/07 12:26:30;;;;;;;6.32;5.72;;;;;;;;;;5063854;28;20384;-86
2024/01/07 12:29:00;;;;;;;15.57;13.30;;;;;;;;;;5062739;28;20468;-86
2024/01/07 12:31:29;;;;;;;6.00;5.50;;;;;;;;;;5062619;28;20390;-86
2024/01/07 12:33:56;;;;;;;6.80;6.20;;;;;;;;;;5064165;28;20790;-86
2024/01/07 12:36:23;;;;;;;6.32;5.82;;;;;;;;;;5062623;28;20405;-86
2024/01/07 12:38:49;;;;;;;6.47;5.97;;;;;;;;;;5063129;28;20408;-86
2024/01/07 12:41:15;;;;;;;6.87;6.33;;;;;;;;;;5063687;28;20717;-86
2024/01/07 12:43:41;;;;;;;5.00;4.60;;;;;;;;;;5061360;28;20752;-86
2024/01/07 12:46:07;;;;;;;4.67;4.27;;;;;;;;;;5062143;28;20404;-86
2024/01/07 12:48:33;;;;;;;4.75;4.35;;;;;;;;;;5063150;28;20433;-86
2024/01/07 12:51:00;;;;;;;6.95;6.10;;;;;;;;;;5063143;28;20385;-86
2024/01/07 12:53:26;;;;;;;4.90;4.50;;;;;;;;;;5063420;28;20374;-86
2024/01/07 12:55:53;;;;;;;5.43;4.93;;;;;;;;;;5061243;28;20400;-86
2024/01/07 12:58:20;;;;;;;10.80;9.70;;;;;;;;;;5062074;28;20385;-86
2024/01/07 13:00:46;;;;;;;5.25;4.78;;;;;;;;;;5061476;28;20871;-85
2024/01/07 13:03:22;;;;;;;13.30;11.25;;;;;;;;;;5064554;28;20428;-85
2024/01/07 13:05:51;;;;;;;15.32;12.80;;;;;;;;;;5063616;28;20385;-85
2024/01/07 13:08:18;;;;;;;50.20;32.25;;;;;;;;;;5063367;28;20396;-85
2024/01/07 13:10:45;;;;;;;7.45;6.70;;;;;;;;;;5063028;28;20401;-85
2024/01/07 13:13:12;;;;;;;53.47;34.43;;;;;;;;;;5064092;28;20378;-84
2024/01/07 13:15:38;;;;;;;10.52;9.30;;;;;;;;;;5063601;28;20404;-85
2024/01/07 13:18:05;;;;;;;36.65;24.95;;;;;;;;;;5063331;28;20380;-85
2024/01/07 13:20:31;;;;;;;7.57;6.82;;;;;;;;;;5065477;28;20436;-85
2024/01/07 13:22:57;;;;;;;15.82;12.80;;;;;;;;;;5043881;28;20375;-85
2024/01/07 13:25:22;;;;;;;13.15;11.57;;;;;;;;;;5059549;28;20391;-85
2024/01/07 13:27:48;;;;;;;10.93;9.83;;;;;;;;;;5043322;28;20500;-85
2024/01/07 13:30:16;;;;;;;5.43;4.93;;;;;;;;;;5044124;28;20387;-85
2024/01/07 13:32:42;;;;;;;7.30;6.55;;;;;;;;;;5043896;28;20447;-86
2024/01/07 13:35:10;;;;;;;8.70;7.82;;;;;;;;;;5043758;28;20414;-86
2024/01/07 13:37:36;;;;;;;4.88;4.40;;;;;;;;;;5068623;28;20406;-85
2024/01/07 13:40:03;;;;;;;5.13;4.32;;;;;;;;;;5062767;28;20405;-85
2024/01/07 13:42:29;;;;;;;5.07;4.32;;;;;;;;;;5063108;28;20387;-85
2024/01/07 13:44:55;;;;;;;4.78;4.38;;;;;;;;;;5061369;28;20402;-86
2024/01/07 13:47:21;;;;;;;4.77;4.37;;;;;;;;;;5061846;28;20488;-86
2024/01/07 13:49:47;;;;;;;5.40;4.90;;;;;;;;;;5057988;28;20405;-85
2024/01/07 13:52:13;;;;;;;5.82;5.22;;;;;;;;;;5060755;28;20790;-85
2024/01/07 13:54:40;;;;;;;5.57;5.07;;;;;;;;;;5063223;28;20381;-85
2024/01/07 13:57:06;;;;;;;5.30;4.80;;;;;;;;;;5063840;28;20390;-86
2024/01/07 13:59:33;;;;;;;4.43;4.03;;;;;;;;;;5066451;28;20417;-86
2024/01/07 14:01:59;;;;;;;4.78;4.38;;;;;;;;;;5067338;28;20387;-86
2024/01/07 14:04:25;;;;;;;4.57;4.18;;;;;;;;;;5072881;28;20373;-86
2024/01/07 14:06:57;;;;;;;4.63;4.22;;;;;;;;;;5071333;28;20380;-84
2024/01/07 14:09:24;;;;;;;4.57;4.18;;;;;;;;;;5066412;28;20420;-86
2024/01/07 14:11:50;;;;;;;4.65;4.25;;;;;;;;;;5065212;28;20476;-85
2024/01/07 14:14:16;;;;;;;9.25;8.35;;;;;;;;;;5068865;28;20389;-84
2024/01/07 14:16:42;;;;;;;5.40;4.90;;;;;;;;;;5067706;28;20985;-84
2024/01/07 14:19:08;;;;;;;3.75;3.45;;;;;;;;;;5065572;28;20424;-83
2024/01/07 14:21:34;;;;;;;4.22;3.92;;;;;;;;;;5068506;28;20464;-83
2024/01/07 14:24:00;;;;;;;4.57;4.18;;;;;;;;;;5084685;28;20386;-85
2024/01/07 14:26:26;;;;;;;3.88;3.58;;;;;;;;;;5071071;28;20374;-87
2024/01/07 14:28:53;;;;;;;4.82;4.43;;;;;;;;;;5068361;28;20421;-86
2024/01/07 14:31:19;;;;;;;5.82;5.32;;;;;;;;;;5066480;28;20381;-86
2024/01/07 14:33:45;;;;;;;4.43;4.03;;;;;;;;;;5060769;28;20799;-86
2024/01/07 14:36:16;;;;;;;4.20;3.80;;;;;;;;;;5060090;28;20476;-85
2024/01/07 14:38:48;;;;;;;5.10;4.57;;;;;;;;;;5059819;28;20906;-85